Terminal Aerodrome Forecast
Issued by NWS

Home | Current Version | Previous Version | Graphics & Text | Print | Product List | Glossary On
Versions: 1 2 3 4 5 6 7 8 9 10 11 12 13 14 15 16
000
FTUS43 KIWX 252100 AAB
TAFSBN
TAF AMD
KSBN 252156Z 2522/2618 20005KT P6SM VCTS SCT050CB BKN100
      TEMPO 2522/2524 5SM -SHRA BKN050
     FM260000 20006KT P6SM BKN040
     FM260800 22004KT 5SM BR VCSH BKN035
     FM261500 25009KT P6SM SCT035=

USA.gov is the U.S. government's official web portal to all federal, state and local government web resources and services.